sensor_id;sensor_type;location;lat;lon;timestamp;temperature;humidity
10304;DHT22;5197;48.152;8.590;2023-05-19T00:01:32;11.00;1.00
10304;DHT22;5197;48.152;8.590;2023-05-19T00:04:03;11.00;1.00
10304;DHT22;5197;48.152;8.590;2023-05-19T00:06:31;11.00;1.00
10304;DHT22;5197;48.152;8.590;2023-05-19T00:09:04;11.10;1.00
10304;DHT22;5197;48.152;8.590;2023-05-19T00:11:31;10.90;1.00
10304;DHT22;5197;48.152;8.590;2023-05-19T00:13:59;10.80;1.00
10304;DHT22;5197;48.152;8.590;2023-05-19T00:16:28;10.80;1.00
10304;DHT22;5197;48.152;8.590;2023-05-19T00:19:00;10.80;1.00
10304;DHT22;5197;48.152;8.590;2023-05-19T00:21:28;10.80;1.00
10304;DHT22;5197;48.152;8.590;2023-05-19T00:23:56;10.70;1.00
10304;DHT22;5197;48.152;8.590;2023-05-19T00:26:24;10.80;1.00
10304;DHT22;5197;48.152;8.590;2023-05-19T00:28:53;10.80;1.00
10304;DHT22;5197;48.152;8.590;2023-05-19T00:31:20;10.80;1.00
10304;DHT22;5197;48.152;8.590;2023-05-19T00:33:47;10.90;1.00
10304;DHT22;5197;48.152;8.590;2023-05-19T00:36:14;11.00;1.00
10304;DHT22;5197;48.152;8.590;2023-05-19T00:38:41;10.90;1.00
10304;DHT22;5197;48.152;8.590;2023-05-19T00:41:08;10.90;1.00
10304;DHT22;5197;48.152;8.590;2023-05-19T00:43:35;10.90;1.00
10304;DHT22;5197;48.152;8.590;2023-05-19T00:46:02;10.90;1.00
10304;DHT22;5197;48.152;8.590;2023-05-19T00:48:29;11.00;1.00
10304;DHT22;5197;48.152;8.590;2023-05-19T00:50:57;10.90;1.00
10304;DHT22;5197;48.152;8.590;2023-05-19T00:53:31;11.00;1.00
10304;DHT22;5197;48.152;8.590;2023-05-19T00:55:59;11.00;1.00
10304;DHT22;5197;48.152;8.590;2023-05-19T00:58:27;11.00;1.00
10304;DHT22;5197;48.152;8.590;2023-05-19T01:00:57;11.00;1.00
10304;DHT22;5197;48.152;8.590;2023-05-19T01:03:31;11.00;1.00
10304;DHT22;5197;48.152;8.590;2023-05-19T01:06:04;11.00;1.00
10304;DHT22;5197;48.152;8.590;2023-05-19T01:08:32;11.00;1.00
10304;DHT22;5197;48.152;8.590;2023-05-19T01:11:00;11.00;1.00
10304;DHT22;5197;48.152;8.590;2023-05-19T01:13:28;11.00;1.00
10304;DHT22;5197;48.152;8.590;2023-05-19T01:16:03;10.90;1.00
10304;DHT22;5197;48.152;8.590;2023-05-19T01:18:38;10.90;1.00
10304;DHT22;5197;48.152;8.590;2023-05-19T01:32:41;10.30;3.00
10304;DHT22;5197;48.152;8.590;2023-05-19T01:35:08;10.20;2.40
10304;DHT22;5197;48.152;8.590;2023-05-19T01:37:37;10.20;2.50
10304;DHT22;5197;48.152;8.590;2023-05-19T01:40:06;10.20;2.60
10304;DHT22;5197;48.152;8.590;2023-05-19T01:42:39;10.20;2.70
10304;DHT22;5197;48.152;8.590;2023-05-19T01:45:07;10.10;3.90
10304;DHT22;5197;48.152;8.590;2023-05-19T01:47:42;10.10;3.90
10304;DHT22;5197;48.152;8.590;2023-05-19T01:50:09;10.00;4.70
10304;DHT22;5197;48.152;8.590;2023-05-19T01:52:37;9.90;5.80
10304;DHT22;5197;48.152;8.590;2023-05-19T01:55:04;9.90;6.10
10304;DHT22;5197;48.152;8.590;2023-05-19T01:57:58;9.90;5.80
10304;DHT22;5197;48.152;8.590;2023-05-19T02:03:52;9.80;6.40
10304;DHT22;5197;48.152;8.590;2023-05-19T02:08:57;9.70;7.80
10304;DHT22;5197;48.152;8.590;2023-05-19T02:11:36;9.60;8.10
10304;DHT22;5197;48.152;8.590;2023-05-19T02:14:17;9.60;9.00
10304;DHT22;5197;48.152;8.590;2023-05-19T02:16:47;9.60;7.70
10304;DHT22;5197;48.152;8.590;2023-05-19T02:19:25;9.60;7.60
10304;DHT22;5197;48.152;8.590;2023-05-19T02:21:53;9.60;7.70
10304;DHT22;5197;48.152;8.590;2023-05-19T02:24:20;9.60;7.80
10304;DHT22;5197;48.152;8.590;2023-05-19T02:26:52;9.60;7.50
10304;DHT22;5197;48.152;8.590;2023-05-19T02:29:20;9.50;7.80
10304;DHT22;5197;48.152;8.590;2023-05-19T02:31:47;9.50;7.90
10304;DHT22;5197;48.152;8.590;2023-05-19T02:34:14;9.50;7.80
10304;DHT22;5197;48.152;8.590;2023-05-19T02:36:42;9.50;8.50
10304;DHT22;5197;48.152;8.590;2023-05-19T02:39:09;9.40;9.00
10304;DHT22;5197;48.152;8.590;2023-05-19T02:41:37;9.40;8.80
10304;DHT22;5197;48.152;8.590;2023-05-19T02:44:04;9.40;9.20
10304;DHT22;5197;48.152;8.590;2023-05-19T02:46:32;9.40;9.70
10304;DHT22;5197;48.152;8.590;2023-05-19T02:48:59;9.40;9.70
10304;DHT22;5197;48.152;8.590;2023-05-19T02:51:26;9.40;9.70
10304;DHT22;5197;48.152;8.590;2023-05-19T02:53:53;9.40;9.90
10304;DHT22;5197;48.152;8.590;2023-05-19T02:56:20;9.30;10.20
10304;DHT22;5197;48.152;8.590;2023-05-19T02:58:47;9.30;11.40
10304;DHT22;5197;48.152;8.590;2023-05-19T03:01:14;9.30;10.70
10304;DHT22;5197;48.152;8.590;2023-05-19T03:03:42;9.30;10.90
10304;DHT22;5197;48.152;8.590;2023-05-19T03:06:09;9.20;11.10
10304;DHT22;5197;48.152;8.590;2023-05-19T03:08:37;9.30;11.00
10304;DHT22;5197;48.152;8.590;2023-05-19T03:11:07;9.30;10.90
10304;DHT22;5197;48.152;8.590;2023-05-19T03:13:35;9.20;11.60
10304;DHT22;5197;48.152;8.590;2023-05-19T03:16:02;9.30;11.80
10304;DHT22;5197;48.152;8.590;2023-05-19T03:18:29;9.20;12.00
10304;DHT22;5197;48.152;8.590;2023-05-19T03:20:56;9.20;11.80
10304;DHT22;5197;48.152;8.590;2023-05-19T03:23:23;9.40;11.90
10304;DHT22;5197;48.152;8.590;2023-05-19T03:25:51;9.30;11.10
10304;DHT22;5197;48.152;8.590;2023-05-19T03:28:19;9.30;11.00
10304;DHT22;5197;48.152;8.590;2023-05-19T03:30:46;9.30;11.20
10304;DHT22;5197;48.152;8.590;2023-05-19T03:33:15;9.20;11.40
10304;DHT22;5197;48.152;8.590;2023-05-19T03:35:43;9.20;12.30
10304;DHT22;5197;48.152;8.590;2023-05-19T03:38:12;9.20;12.50
10304;DHT22;5197;48.152;8.590;2023-05-19T03:40:39;9.10;12.70
10304;DHT22;5197;48.152;8.590;2023-05-19T03:43:07;9.10;13.20
10304;DHT22;5197;48.152;8.590;2023-05-19T03:45:34;9.00;13.20
10304;DHT22;5197;48.152;8.590;2023-05-19T03:48:01;9.00;13.60
10304;DHT22;5197;48.152;8.590;2023-05-19T03:50:28;9.00;13.90
10304;DHT22;5197;48.152;8.590;2023-05-19T03:52:57;9.00;14.10
10304;DHT22;5197;48.152;8.590;2023-05-19T03:55:24;8.90;14.30
10304;DHT22;5197;48.152;8.590;2023-05-19T03:57:52;8.90;15.00
10304;DHT22;5197;48.152;8.590;2023-05-19T04:00:18;8.90;14.90
10304;DHT22;5197;48.152;8.590;2023-05-19T04:02:46;8.80;15.40
10304;DHT22;5197;48.152;8.590;2023-05-19T04:05:13;8.80;16.00
10304;DHT22;5197;48.152;8.590;2023-05-19T04:07:40;8.80;16.20
10304;DHT22;5197;48.152;8.590;2023-05-19T04:10:07;8.70;16.70
10304;DHT22;5197;48.152;8.590;2023-05-19T04:12:34;8.70;16.80
10304;DHT22;5197;48.152;8.590;2023-05-19T04:15:01;8.80;16.60
10304;DHT22;5197;48.152;8.590;2023-05-19T04:17:28;8.70;17.70
10304;DHT22;5197;48.152;8.590;2023-05-19T04:19:56;8.70;16.60
10304;DHT22;5197;48.152;8.590;2023-05-19T04:22:23;8.80;16.50
10304;DHT22;5197;48.152;8.590;2023-05-19T04:24:53;8.80;16.70
10304;DHT22;5197;48.152;8.590;2023-05-19T04:27:20;8.70;17.40
10304;DHT22;5197;48.152;8.590;2023-05-19T04:29:48;8.70;17.30
10304;DHT22;5197;48.152;8.590;2023-05-19T04:32:15;8.70;17.30
10304;DHT22;5197;48.152;8.590;2023-05-19T04:34:45;8.70;17.00
10304;DHT22;5197;48.152;8.590;2023-05-19T04:37:12;8.70;16.20
10304;DHT22;5197;48.152;8.590;2023-05-19T04:39:42;8.70;16.50
10304;DHT22;5197;48.152;8.590;2023-05-19T04:42:11;8.70;16.80
10304;DHT22;5197;48.152;8.590;2023-05-19T04:44:39;7.80;15.90
10304;DHT22;5197;48.152;8.590;2023-05-19T04:47:06;8.70;16.80
10304;DHT22;5197;48.152;8.590;2023-05-19T04:49:36;8.70;16.80
10304;DHT22;5197;48.152;8.590;2023-05-19T04:52:09;8.80;16.70
10304;DHT22;5197;48.152;8.590;2023-05-19T04:54:37;8.80;16.40
10304;DHT22;5197;48.152;8.590;2023-05-19T04:57:05;8.80;16.10
10304;DHT22;5197;48.152;8.590;2023-05-19T04:59:32;8.90;16.20
10304;DHT22;5197;48.152;8.590;2023-05-19T05:01:59;8.80;16.20
10304;DHT22;5197;48.152;8.590;2023-05-19T05:04:26;8.80;16.00
10304;DHT22;5197;48.152;8.590;2023-05-19T05:06:54;8.90;15.80
10304;DHT22;5197;48.152;8.590;2023-05-19T05:09:21;8.90;15.90
10304;DHT22;5197;48.152;8.590;2023-05-19T05:11:48;8.90;16.20
10304;DHT22;5197;48.152;8.590;2023-05-19T05:14:17;8.90;16.30
10304;DHT22;5197;48.152;8.590;2023-05-19T05:16:44;8.90;16.60
10304;DHT22;5197;48.152;8.590;2023-05-19T05:19:12;8.90;16.20
10304;DHT22;5197;48.152;8.590;2023-05-19T05:21:40;8.90;15.90
10304;DHT22;5197;48.152;8.590;2023-05-19T05:24:08;9.00;15.90
10304;DHT22;5197;48.152;8.590;2023-05-19T05:26:35;9.00;15.80
10304;DHT22;5197;48.152;8.590;2023-05-19T05:29:03;9.00;15.80
10304;DHT22;5197;48.152;8.590;2023-05-19T05:31:30;9.10;15.60
10304;DHT22;5197;48.152;8.590;2023-05-19T05:33:57;9.10;15.40
10304;DHT22;5197;48.152;8.590;2023-05-19T05:36:24;9.20;15.00
10304;DHT22;5197;48.152;8.590;2023-05-19T05:38:51;9.20;14.90
10304;DHT22;5197;48.152;8.590;2023-05-19T05:41:18;9.20;14.80
10304;DHT22;5197;48.152;8.590;2023-05-19T05:43:45;9.30;14.50
10304;DHT22;5197;48.152;8.590;2023-05-19T05:46:12;9.40;14.40
10304;DHT22;5197;48.152;8.590;2023-05-19T05:48:40;9.40;14.40
10304;DHT22;5197;48.152;8.590;2023-05-19T05:51:09;9.40;14.30
10304;DHT22;5197;48.152;8.590;2023-05-19T05:53:40;9.50;14.20
10304;DHT22;5197;48.152;8.590;2023-05-19T05:56:09;9.60;13.90
10304;DHT22;5197;48.152;8.590;2023-05-19T05:58:37;9.60;13.10
10304;DHT22;5197;48.152;8.590;2023-05-19T06:01:06;9.60;13.50
10304;DHT22;5197;48.152;8.590;2023-05-19T06:03:41;9.60;13.50
10304;DHT22;5197;48.152;8.590;2023-05-19T06:06:10;9.60;13.30
10304;DHT22;5197;48.152;8.590;2023-05-19T06:08:37;9.60;13.00
10304;DHT22;5197;48.152;8.590;2023-05-19T06:11:04;9.60;13.60
10304;DHT22;5197;48.152;8.590;2023-05-19T06:13:35;9.60;13.30
10304;DHT22;5197;48.152;8.590;2023-05-19T06:16:02;9.70;13.10
10304;DHT22;5197;48.152;8.590;2023-05-19T06:18:29;9.70;13.40
10304;DHT22;5197;48.152;8.590;2023-05-19T06:20:56;9.70;13.10
10304;DHT22;5197;48.152;8.590;2023-05-19T06:23:23;9.80;13.00
10304;DHT22;5197;48.152;8.590;2023-05-19T06:25:52;9.80;12.90
10304;DHT22;5197;48.152;8.590;2023-05-19T06:28:19;9.80;12.40
10304;DHT22;5197;48.152;8.590;2023-05-19T06:30:47;9.90;13.00
10304;DHT22;5197;48.152;8.590;2023-05-19T06:33:14;10.10;12.10
10304;DHT22;5197;48.152;8.590;2023-05-19T06:35:41;10.20;11.30
10304;DHT22;5197;48.152;8.590;2023-05-19T06:38:08;10.20;11.30
10304;DHT22;5197;48.152;8.590;2023-05-19T06:40:35;10.30;10.90
10304;DHT22;5197;48.152;8.590;2023-05-19T06:43:02;10.40;10.60
10304;DHT22;5197;48.152;8.590;2023-05-19T06:45:30;10.60;8.30
10304;DHT22;5197;48.152;8.590;2023-05-19T06:47:57;10.60;8.20
10304;DHT22;5197;48.152;8.590;2023-05-19T06:50:25;10.60;9.00
10304;DHT22;5197;48.152;8.590;2023-05-19T06:52:52;10.60;9.00
10304;DHT22;5197;48.152;8.590;2023-05-19T06:55:19;10.60;8.90
10304;DHT22;5197;48.152;8.590;2023-05-19T06:57:46;10.60;8.90
10304;DHT22;5197;48.152;8.590;2023-05-19T07:00:13;10.70;9.40
10304;DHT22;5197;48.152;8.590;2023-05-19T07:02:44;10.80;9.20
10304;DHT22;5197;48.152;8.590;2023-05-19T07:05:11;10.80;8.60
10304;DHT22;5197;48.152;8.590;2023-05-19T07:07:38;10.80;8.80
10304;DHT22;5197;48.152;8.590;2023-05-19T07:10:06;10.70;8.50
10304;DHT22;5197;48.152;8.590;2023-05-19T07:12:33;10.70;8.50
10304;DHT22;5197;48.152;8.590;2023-05-19T07:15:00;10.70;8.40
10304;DHT22;5197;48.152;8.590;2023-05-19T07:17:27;10.70;8.30
10304;DHT22;5197;48.152;8.590;2023-05-19T07:19:54;10.70;8.50
10304;DHT22;5197;48.152;8.590;2023-05-19T07:22:21;10.70;8.50
10304;DHT22;5197;48.152;8.590;2023-05-19T07:24:49;10.70;8.70
10304;DHT22;5197;48.152;8.590;2023-05-19T07:27:17;10.70;8.80
10304;DHT22;5197;48.152;8.590;2023-05-19T07:29:44;10.70;8.90
10304;DHT22;5197;48.152;8.590;2023-05-19T07:32:11;10.60;8.60
10304;DHT22;5197;48.152;8.590;2023-05-19T07:34:39;10.60;9.70
10304;DHT22;5197;48.152;8.590;2023-05-19T07:37:06;10.60;9.70
10304;DHT22;5197;48.152;8.590;2023-05-19T07:39:34;10.60;9.70
10304;DHT22;5197;48.152;8.590;2023-05-19T07:42:02;10.60;9.70
10304;DHT22;5197;48.152;8.590;2023-05-19T07:44:28;10.60;9.70
10304;DHT22;5197;48.152;8.590;2023-05-19T07:46:57;10.70;9.90
10304;DHT22;5197;48.152;8.590;2023-05-19T07:49:24;10.60;9.10
10304;DHT22;5197;48.152;8.590;2023-05-19T07:51:51;10.70;9.60
10304;DHT22;5197;48.152;8.590;2023-05-19T07:54:18;10.70;9.40
10304;DHT22;5197;48.152;8.590;2023-05-19T07:56:45;10.80;8.80
10304;DHT22;5197;48.152;8.590;2023-05-19T07:59:14;10.90;9.10
10304;DHT22;5197;48.152;8.590;2023-05-19T08:01:41;10.90;8.30
10304;DHT22;5197;48.152;8.590;2023-05-19T08:04:09;10.90;8.30
10304;DHT22;5197;48.152;8.590;2023-05-19T08:06:39;11.00;8.20
10304;DHT22;5197;48.152;8.590;2023-05-19T08:09:08;11.20;7.50
10304;DHT22;5197;48.152;8.590;2023-05-19T08:11:35;11.30;7.00
10304;DHT22;5197;48.152;8.590;2023-05-19T08:14:02;11.40;6.90
10304;DHT22;5197;48.152;8.590;2023-05-19T08:16:29;11.40;6.90
10304;DHT22;5197;48.152;8.590;2023-05-19T08:18:57;11.40;6.40
10304;DHT22;5197;48.152;8.590;2023-05-19T08:21:27;11.40;6.70
10304;DHT22;5197;48.152;8.590;2023-05-19T08:23:54;11.50;6.30
10304;DHT22;5197;48.152;8.590;2023-05-19T08:26:21;11.60;5.80
10304;DHT22;5197;48.152;8.590;2023-05-19T08:28:48;11.70;5.90
10304;DHT22;5197;48.152;8.590;2023-05-19T08:31:15;11.60;5.10
10304;DHT22;5197;48.152;8.590;2023-05-19T08:33:44;11.50;4.70
10304;DHT22;5197;48.152;8.590;2023-05-19T08:36:11;11.50;5.40
10304;DHT22;5197;48.152;8.590;2023-05-19T08:38:38;11.50;4.90
10304;DHT22;5197;48.152;8.590;2023-05-19T08:41:05;11.60;3.20
10304;DHT22;5197;48.152;8.590;2023-05-19T08:43:33;11.70;4.30
10304;DHT22;5197;48.152;8.590;2023-05-19T08:46:00;11.90;2.80
10304;DHT22;5197;48.152;8.590;2023-05-19T08:48:29;12.00;1.60
10304;DHT22;5197;48.152;8.590;2023-05-19T08:53:49;12.10;2.30
10304;DHT22;5197;48.152;8.590;2023-05-19T08:56:20;11.90;2.00
10304;DHT22;5197;48.152;8.590;2023-05-19T08:58:50;11.90;2.40
10304;DHT22;5197;48.152;8.590;2023-05-19T09:01:18;12.00;1.90
10304;DHT22;5197;48.152;8.590;2023-05-19T09:03:46;12.10;1.80
10304;DHT22;5197;48.152;8.590;2023-05-19T09:06:16;12.00;1.10
10304;DHT22;5197;48.152;8.590;2023-05-19T09:08:43;11.90;1.40
10304;DHT22;5197;48.152;8.590;2023-05-19T09:11:11;11.90;1.20
10304;DHT22;5197;48.152;8.590;2023-05-19T09:13:38;12.00;1.40
10304;DHT22;5197;48.152;8.590;2023-05-19T09:16:05;11.90;1.00
10304;DHT22;5197;48.152;8.590;2023-05-19T09:18:32;12.00;1.00
10304;DHT22;5197;48.152;8.590;2023-05-19T09:21:00;11.90;1.00
10304;DHT22;5197;48.152;8.590;2023-05-19T09:23:30;12.00;1.60
10304;DHT22;5197;48.152;8.590;2023-05-19T09:26:03;12.10;1.80
10304;DHT22;5197;48.152;8.590;2023-05-19T09:28:34;12.00;1.00
10304;DHT22;5197;48.152;8.590;2023-05-19T09:31:02;12.00;1.00
10304;DHT22;5197;48.152;8.590;2023-05-19T09:33:32;12.20;1.20
10304;DHT22;5197;48.152;8.590;2023-05-19T09:36:00;12.40;1.20
10304;DHT22;5197;48.152;8.590;2023-05-19T09:38:27;12.50;1.00
10304;DHT22;5197;48.152;8.590;2023-05-19T09:40:56;12.60;1.00
10304;DHT22;5197;48.152;8.590;2023-05-19T09:43:28;12.40;1.00
10304;DHT22;5197;48.152;8.590;2023-05-19T09:45:59;12.30;2.10
10304;DHT22;5197;48.152;8.590;2023-05-19T09:48:29;12.20;1.50
10304;DHT22;5197;48.152;8.590;2023-05-19T09:50:56;12.40;1.00
10304;DHT22;5197;48.152;8.590;2023-05-19T09:53:24;12.50;1.00
10304;DHT22;5197;48.152;8.590;2023-05-19T09:55:55;12.40;1.00
10304;DHT22;5197;48.152;8.590;2023-05-19T09:58:26;12.40;1.00
10304;DHT22;5197;48.152;8.590;2023-05-19T10:00:57;12.40;1.10
10304;DHT22;5197;48.152;8.590;2023-05-19T10:03:25;12.50;1.00
10304;DHT22;5197;48.152;8.590;2023-05-19T10:05:52;12.50;1.00
10304;DHT22;5197;48.152;8.590;2023-05-19T10:08:21;12.50;1.00
10304;DHT22;5197;48.152;8.590;2023-05-19T10:10:49;12.50;1.00
10304;DHT22;5197;48.152;8.590;2023-05-19T10:13:17;12.40;1.00
10304;DHT22;5197;48.152;8.590;2023-05-19T10:15:46;12.30;1.00
10304;DHT22;5197;48.152;8.590;2023-05-19T10:18:25;12.20;1.00
10304;DHT22;5197;48.152;8.590;2023-05-19T10:20:53;12.00;1.00
10304;DHT22;5197;48.152;8.590;2023-05-19T10:23:24;12.00;2.30
10304;DHT22;5197;48.152;8.590;2023-05-19T10:25:55;12.10;1.50
10304;DHT22;5197;48.152;8.590;2023-05-19T10:28:25;12.30;1.60
10304;DHT22;5197;48.152;8.590;2023-05-19T10:30:58;12.30;1.80
10304;DHT22;5197;48.152;8.590;2023-05-19T10:36:35;12.30;3.00
10304;DHT22;5197;48.152;8.590;2023-05-19T10:39:12;12.30;2.60
10304;DHT22;5197;48.152;8.590;2023-05-19T10:47:08;12.70;1.40
10304;DHT22;5197;48.152;8.590;2023-05-19T10:49:38;12.70;1.90
10304;DHT22;5197;48.152;8.590;2023-05-19T10:52:19;12.60;1.70
10304;DHT22;5197;48.152;8.590;2023-05-19T10:54:51;12.50;1.00
10304;DHT22;5197;48.152;8.590;2023-05-19T10:57:27;12.50;2.60
10304;DHT22;5197;48.152;8.590;2023-05-19T10:59:56;12.50;3.00
10304;DHT22;5197;48.152;8.590;2023-05-19T11:02:43;12.60;2.60
10304;DHT22;5197;48.152;8.590;2023-05-19T11:05:12;12.90;1.80
10304;DHT22;5197;48.152;8.590;2023-05-19T11:07:56;12.90;1.00
10304;DHT22;5197;48.152;8.590;2023-05-19T11:10:28;12.90;1.00
10304;DHT22;5197;48.152;8.590;2023-05-19T11:12:56;12.80;1.00
10304;DHT22;5197;48.152;8.590;2023-05-19T11:15:27;12.80;1.00
10304;DHT22;5197;48.152;8.590;2023-05-19T11:17:54;13.00;1.20
10304;DHT22;5197;48.152;8.590;2023-05-19T11:23:20;13.00;1.00
10304;DHT22;5197;48.152;8.590;2023-05-19T11:25:51;13.20;1.00
10304;DHT22;5197;48.152;8.590;2023-05-19T11:28:22;12.90;1.00
10304;DHT22;5197;48.152;8.590;2023-05-19T11:30:55;12.90;1.00
10304;DHT22;5197;48.152;8.590;2023-05-19T11:33:24;13.10;1.00
10304;DHT22;5197;48.152;8.590;2023-05-19T11:35:55;13.30;1.00
10304;DHT22;5197;48.152;8.590;2023-05-19T11:38:27;13.30;1.00
10304;DHT22;5197;48.152;8.590;2023-05-19T11:40:56;13.40;1.00
10304;DHT22;5197;48.152;8.590;2023-05-19T11:43:24;13.50;1.00
10304;DHT22;5197;48.152;8.590;2023-05-19T11:45:53;13.60;1.00
10304;DHT22;5197;48.152;8.590;2023-05-19T11:48:21;13.50;1.00
10304;DHT22;5197;48.152;8.590;2023-05-19T11:50:50;13.60;1.00
10304;DHT22;5197;48.152;8.590;2023-05-19T11:53:18;13.60;1.00
10304;DHT22;5197;48.152;8.590;2023-05-19T11:55:47;13.50;1.00
10304;DHT22;5197;48.152;8.590;2023-05-19T11:58:15;13.60;1.00
10304;DHT22;5197;48.152;8.590;2023-05-19T12:00:43;13.70;1.00
10304;DHT22;5197;48.152;8.590;2023-05-19T12:03:13;13.70;1.00
10304;DHT22;5197;48.152;8.590;2023-05-19T12:05:44;13.60;1.00
10304;DHT22;5197;48.152;8.590;2023-05-19T12:08:15;13.80;1.00
10304;DHT22;5197;48.152;8.590;2023-05-19T12:10:47;13.90;1.00
10304;DHT22;5197;48.152;8.590;2023-05-19T12:13:14;14.10;1.00
10304;DHT22;5197;48.152;8.590;2023-05-19T12:15:41;14.10;1.00
10304;DHT22;5197;48.152;8.590;2023-05-19T12:18:08;14.00;1.00
10304;DHT22;5197;48.152;8.590;2023-05-19T12:20:35;13.80;1.00
10304;DHT22;5197;48.152;8.590;2023-05-19T12:23:03;13.60;1.00
10304;DHT22;5197;48.152;8.590;2023-05-19T12:25:30;13.60;1.00
10304;DHT22;5197;48.152;8.590;2023-05-19T12:27:59;13.60;1.00
10304;DHT22;5197;48.152;8.590;2023-05-19T12:30:30;13.50;1.00
10304;DHT22;5197;48.152;8.590;2023-05-19T12:33:00;13.40;1.00
10304;DHT22;5197;48.152;8.590;2023-05-19T12:35:29;13.40;1.00
10304;DHT22;5197;48.152;8.590;2023-05-19T12:37:56;13.60;1.00
10304;DHT22;5197;48.152;8.590;2023-05-19T12:40:28;13.70;1.00
10304;DHT22;5197;48.152;8.590;2023-05-19T12:42:56;13.70;1.00
10304;DHT22;5197;48.152;8.590;2023-05-19T12:45:25;13.50;1.00
10304;DHT22;5197;48.152;8.590;2023-05-19T12:47:54;13.10;1.00
10304;DHT22;5197;48.152;8.590;2023-05-19T12:50:29;13.10;1.00
10304;DHT22;5197;48.152;8.590;2023-05-19T12:52:57;13.30;1.00
10304;DHT22;5197;48.152;8.590;2023-05-19T12:55:25;13.40;1.00
10304;DHT22;5197;48.152;8.590;2023-05-19T12:57:52;13.60;1.00
10304;DHT22;5197;48.152;8.590;2023-05-19T13:00:23;13.70;1.00
10304;DHT22;5197;48.152;8.590;2023-05-19T13:03:00;13.70;1.00
10304;DHT22;5197;48.152;8.590;2023-05-19T13:05:38;13.70;1.00
10304;DHT22;5197;48.152;8.590;2023-05-19T13:10:35;13.80;1.00
10304;DHT22;5197;48.152;8.590;2023-05-19T13:13:03;13.80;1.00
10304;DHT22;5197;48.152;8.590;2023-05-19T13:15:32;13.80;1.00
10304;DHT22;5197;48.152;8.590;2023-05-19T13:18:05;13.90;1.00
10304;DHT22;5197;48.152;8.590;2023-05-19T13:20:35;13.90;1.00
10304;DHT22;5197;48.152;8.590;2023-05-19T13:23:03;13.80;1.00
10304;DHT22;5197;48.152;8.590;2023-05-19T13:25:34;13.60;1.00
10304;DHT22;5197;48.152;8.590;2023-05-19T13:28:02;13.70;1.00
10304;DHT22;5197;48.152;8.590;2023-05-19T13:30:33;13.60;1.00
10304;DHT22;5197;48.152;8.590;2023-05-19T13:33:01;13.60;1.00
10304;DHT22;5197;48.152;8.590;2023-05-19T13:35:28;13.60;1.00
10304;DHT22;5197;48.152;8.590;2023-05-19T13:37:56;13.60;1.00
10304;DHT22;5197;48.152;8.590;2023-05-19T13:40:23;13.60;1.00
10304;DHT22;5197;48.152;8.590;2023-05-19T13:42:54;13.70;1.00
10304;DHT22;5197;48.152;8.590;2023-05-19T13:45:21;13.70;1.00
10304;DHT22;5197;48.152;8.590;2023-05-19T13:47:48;13.70;1.00
10304;DHT22;5197;48.152;8.590;2023-05-19T13:50:15;13.70;1.00
10304;DHT22;5197;48.152;8.590;2023-05-19T13:52:43;13.70;1.00
10304;DHT22;5197;48.152;8.590;2023-05-19T13:55:10;13.60;1.00
10304;DHT22;5197;48.152;8.590;2023-05-19T13:57:37;13.70;1.00
10304;DHT22;5197;48.152;8.590;2023-05-19T14:00:05;13.70;1.00
10304;DHT22;5197;48.152;8.590;2023-05-19T14:02:32;13.70;1.00
10304;DHT22;5197;48.152;8.590;2023-05-19T14:04:59;13.60;1.00
10304;DHT22;5197;48.152;8.590;2023-05-19T14:07:27;13.60;1.00
10304;DHT22;5197;48.152;8.590;2023-05-19T14:09:54;13.50;1.00
10304;DHT22;5197;48.152;8.590;2023-05-19T14:12:21;13.30;1.00
10304;DHT22;5197;48.152;8.590;2023-05-19T14:15:00;13.30;1.00
10304;DHT22;5197;48.152;8.590;2023-05-19T14:17:28;13.30;1.00
10304;DHT22;5197;48.152;8.590;2023-05-19T14:19:55;13.40;1.00
10304;DHT22;5197;48.152;8.590;2023-05-19T14:22:22;13.40;1.00
10304;DHT22;5197;48.152;8.590;2023-05-19T14:24:49;13.10;1.00
10304;DHT22;5197;48.152;8.590;2023-05-19T14:27:16;12.80;1.00
10304;DHT22;5197;48.152;8.590;2023-05-19T14:29:43;12.50;1.00
10304;DHT22;5197;48.152;8.590;2023-05-19T14:32:12;12.40;1.00
10304;DHT22;5197;48.152;8.590;2023-05-19T14:34:39;12.40;1.00
10304;DHT22;5197;48.152;8.590;2023-05-19T14:37:06;12.50;1.00
10304;DHT22;5197;48.152;8.590;2023-05-19T14:39:33;12.70;1.00
10304;DHT22;5197;48.152;8.590;2023-05-19T14:42:00;12.90;1.00
10304;DHT22;5197;48.152;8.590;2023-05-19T14:44:31;13.20;1.00
10304;DHT22;5197;48.152;8.590;2023-05-19T14:47:03;13.30;1.00
10304;DHT22;5197;48.152;8.590;2023-05-19T14:49:30;13.20;1.00
10304;DHT22;5197;48.152;8.590;2023-05-19T14:51:57;13.30;1.00
10304;DHT22;5197;48.152;8.590;2023-05-19T14:54:24;13.40;1.00
10304;DHT22;5197;48.152;8.590;2023-05-19T14:56:51;13.20;1.00
10304;DHT22;5197;48.152;8.590;2023-05-19T14:59:18;13.30;1.00
10304;DHT22;5197;48.152;8.590;2023-05-19T15:01:47;13.40;1.00
10304;DHT22;5197;48.152;8.590;2023-05-19T15:04:14;13.50;1.00
10304;DHT22;5197;48.152;8.590;2023-05-19T15:06:41;13.50;1.00
10304;DHT22;5197;48.152;8.590;2023-05-19T15:09:08;13.40;1.00
10304;DHT22;5197;48.152;8.590;2023-05-19T15:11:37;13.30;1.00
10304;DHT22;5197;48.152;8.590;2023-05-19T15:14:04;13.30;1.00
10304;DHT22;5197;48.152;8.590;2023-05-19T15:16:31;13.40;1.00
10304;DHT22;5197;48.152;8.590;2023-05-19T15:18:58;13.40;1.00
10304;DHT22;5197;48.152;8.590;2023-05-19T15:21:25;13.50;1.00
10304;DHT22;5197;48.152;8.590;2023-05-19T15:23:52;13.40;1.00
10304;DHT22;5197;48.152;8.590;2023-05-19T15:26:19;13.30;1.00
10304;DHT22;5197;48.152;8.590;2023-05-19T15:28:46;13.20;1.00
10304;DHT22;5197;48.152;8.590;2023-05-19T15:31:13;13.10;1.00
10304;DHT22;5197;48.152;8.590;2023-05-19T15:33:40;12.90;1.00
10304;DHT22;5197;48.152;8.590;2023-05-19T15:36:07;13.00;1.00
10304;DHT22;5197;48.152;8.590;2023-05-19T15:38:35;13.00;1.00
10304;DHT22;5197;48.152;8.590;2023-05-19T15:41:06;13.10;1.00
10304;DHT22;5197;48.152;8.590;2023-05-19T15:43:34;13.30;1.00
10304;DHT22;5197;48.152;8.590;2023-05-19T15:46:01;13.40;1.00
10304;DHT22;5197;48.152;8.590;2023-05-19T15:48:31;13.40;1.00
10304;DHT22;5197;48.152;8.590;2023-05-19T15:50:58;13.50;1.00
10304;DHT22;5197;48.152;8.590;2023-05-19T15:53:25;13.40;1.00
10304;DHT22;5197;48.152;8.590;2023-05-19T15:55:53;13.40;1.00
10304;DHT22;5197;48.152;8.590;2023-05-19T15:58:20;13.40;1.00
10304;DHT22;5197;48.152;8.590;2023-05-19T16:00:47;13.30;1.00
10304;DHT22;5197;48.152;8.590;2023-05-19T16:03:14;13.10;1.00
10304;DHT22;5197;48.152;8.590;2023-05-19T16:05:41;15.10;1.00
10304;DHT22;5197;48.152;8.590;2023-05-19T16:08:09;13.10;1.00
10304;DHT22;5197;48.152;8.590;2023-05-19T16:10:37;12.90;1.00
10304;DHT22;5197;48.152;8.590;2023-05-19T16:13:04;12.80;1.00
10304;DHT22;5197;48.152;8.590;2023-05-19T16:15:31;12.70;1.00
10304;DHT22;5197;48.152;8.590;2023-05-19T16:17:58;12.70;1.00
10304;DHT22;5197;48.152;8.590;2023-05-19T16:20:25;12.70;1.00
10304;DHT22;5197;48.152;8.590;2023-05-19T16:22:54;12.60;1.00
10304;DHT22;5197;48.152;8.590;2023-05-19T16:25:21;12.50;1.00
10304;DHT22;5197;48.152;8.590;2023-05-19T16:27:49;12.60;1.00
10304;DHT22;5197;48.152;8.590;2023-05-19T16:30:16;12.60;1.00
10304;DHT22;5197;48.152;8.590;2023-05-19T16:32:43;12.70;1.00
10304;DHT22;5197;48.152;8.590;2023-05-19T16:35:10;12.80;1.00
10304;DHT22;5197;48.152;8.590;2023-05-19T16:37:38;12.80;1.00
10304;DHT22;5197;48.152;8.590;2023-05-19T16:40:05;12.70;1.00
10304;DHT22;5197;48.152;8.590;2023-05-19T16:42:32;12.80;1.00
10304;DHT22;5197;48.152;8.590;2023-05-19T16:44:59;12.70;1.00